sensor_id;sensor_type;location;lat;lon;timestamp;pressure;altitude;pressure_sealevel;temperature;humidity
53011;BME280;42803;55.762;38.084;2022-08-07T00:01:17;99720.91;;;19.49;89.44
53011;BME280;42803;55.762;38.084;2022-08-07T00:04:06;99718.25;;;19.49;89.56
53011;BME280;42803;55.762;38.084;2022-08-07T00:06:42;99725.19;;;19.46;89.50
53011;BME280;42803;55.762;38.084;2022-08-07T00:09:18;99723.19;;;19.42;89.57
53011;BME280;42803;55.762;38.084;2022-08-07T00:11:50;99723.16;;;19.40;89.87
53011;BME280;42803;55.762;38.084;2022-08-07T00:14:25;99719.25;;;19.32;90.18
53011;BME280;42803;55.762;38.084;2022-08-07T00:16:58;99726.16;;;19.29;90.47
53011;BME280;42803;55.762;38.084;2022-08-07T00:19:29;99722.38;;;19.23;90.54
53011;BME280;42803;55.762;38.084;2022-08-07T00:22:19;99717.31;;;19.28;90.88
53011;BME280;42803;55.762;38.084;2022-08-07T00:25:03;99718.06;;;19.26;90.83
53011;BME280;42803;55.762;38.084;2022-08-07T00:27:35;99719.03;;;19.28;90.84
53011;BME280;42803;55.762;38.084;2022-08-07T00:30:20;99717.91;;;19.22;90.82
53011;BME280;42803;55.762;38.084;2022-08-07T00:32:55;99713.94;;;19.13;91.28
53011;BME280;42803;55.762;38.084;2022-08-07T00:35:25;99716.94;;;19.01;91.67
53011;BME280;42803;55.762;38.084;2022-08-07T00:37:57;99717.53;;;18.95;92.26
53011;BME280;42803;55.762;38.084;2022-08-07T00:40:27;99714.81;;;18.94;92.73
53011;BME280;42803;55.762;38.084;2022-08-07T00:43:09;99711.19;;;18.92;92.71
53011;BME280;42803;55.762;38.084;2022-08-07T00:46:00;99716.38;;;18.89;93.52
53011;BME280;42803;55.762;38.084;2022-08-07T00:48:29;99717.84;;;18.84;94.29
53011;BME280;42803;55.762;38.084;2022-08-07T00:50:59;99721.19;;;18.80;94.64
53011;BME280;42803;55.762;38.084;2022-08-07T00:53:29;99722.72;;;18.74;94.27
53011;BME280;42803;55.762;38.084;2022-08-07T00:56:16;99722.38;;;18.68;94.21
53011;BME280;42803;55.762;38.084;2022-08-07T00:58:47;99722.72;;;18.74;94.02
53011;BME280;42803;55.762;38.084;2022-08-07T01:01:18;99724.84;;;18.82;93.67
53011;BME280;42803;55.762;38.084;2022-08-07T01:03:49;99730.94;;;18.81;93.67
53011;BME280;42803;55.762;38.084;2022-08-07T01:06:25;99727.38;;;18.80;93.62
53011;BME280;42803;55.762;38.084;2022-08-07T01:08:55;99722.88;;;18.78;93.46
53011;BME280;42803;55.762;38.084;2022-08-07T01:11:28;99724.38;;;18.72;93.54
53011;BME280;42803;55.762;38.084;2022-08-07T01:14:21;99726.97;;;18.71;93.65
53011;BME280;42803;55.762;38.084;2022-08-07T01:16:56;99733.56;;;18.81;93.76
53011;BME280;42803;55.762;38.084;2022-08-07T01:19:29;99729.81;;;18.75;93.33
53011;BME280;42803;55.762;38.084;2022-08-07T01:22:02;99728.28;;;18.81;93.49
53011;BME280;42803;55.762;38.084;2022-08-07T01:24:40;99728.16;;;18.78;93.31
53011;BME280;42803;55.762;38.084;2022-08-07T01:27:14;99724.97;;;18.67;93.20
53011;BME280;42803;55.762;38.084;2022-08-07T01:29:48;99729.03;;;18.60;93.59
53011;BME280;42803;55.762;38.084;2022-08-07T01:32:20;99730.56;;;18.55;93.93
53011;BME280;42803;55.762;38.084;2022-08-07T01:34:52;99732.06;;;18.50;93.99
53011;BME280;42803;55.762;38.084;2022-08-07T01:37:26;99731.00;;;18.46;94.46
53011;BME280;42803;55.762;38.084;2022-08-07T01:40:03;99730.25;;;18.49;94.71
53011;BME280;42803;55.762;38.084;2022-08-07T01:42:50;99730.94;;;18.45;94.90
53011;BME280;42803;55.762;38.084;2022-08-07T01:45:29;99727.06;;;18.38;95.07
53011;BME280;42803;55.762;38.084;2022-08-07T01:48:09;99731.44;;;18.38;95.10
53011;BME280;42803;55.762;38.084;2022-08-07T01:50:57;99723.84;;;18.44;95.01
53011;BME280;42803;55.762;38.084;2022-08-07T01:53:50;99727.81;;;18.54;95.00
53011;BME280;42803;55.762;38.084;2022-08-07T01:56:48;99726.06;;;18.70;94.35
53011;BME280;42803;55.762;38.084;2022-08-07T01:59:22;99714.16;;;18.80;93.83
53011;BME280;42803;55.762;38.084;2022-08-07T02:02:02;99715.53;;;18.90;93.19
53011;BME280;42803;55.762;38.084;2022-08-07T02:04:39;99715.09;;;19.00;92.50
53011;BME280;42803;55.762;38.084;2022-08-07T02:07:28;99715.56;;;19.29;91.59
53011;BME280;42803;55.762;38.084;2022-08-07T02:10:24;99703.56;;;19.56;90.23
53011;BME280;42803;55.762;38.084;2022-08-07T02:12:57;99707.25;;;19.79;89.28
53011;BME280;42803;55.762;38.084;2022-08-07T02:15:35;99695.50;;;20.14;87.65
53011;BME280;42803;55.762;38.084;2022-08-07T02:18:09;99696.53;;;20.39;86.38
53011;BME280;42803;55.762;38.084;2022-08-07T02:20:41;99687.19;;;20.69;85.56
53011;BME280;42803;55.762;38.084;2022-08-07T02:23:20;99691.06;;;21.00;83.94
53011;BME280;42803;55.762;38.084;2022-08-07T02:25:53;99692.50;;;21.14;82.95
53011;BME280;42803;55.762;38.084;2022-08-07T02:28:45;99691.94;;;21.47;82.16
53011;BME280;42803;55.762;38.084;2022-08-07T02:31:18;99686.53;;;21.68;81.20
53011;BME280;42803;55.762;38.084;2022-08-07T02:33:57;99690.53;;;22.06;79.58
53011;BME280;42803;55.762;38.084;2022-08-07T02:36:30;99686.84;;;22.28;78.48
53011;BME280;42803;55.762;38.084;2022-08-07T02:39:09;99683.13;;;22.50;77.61
53011;BME280;42803;55.762;38.084;2022-08-07T02:42:02;99682.09;;;22.74;76.75
53011;BME280;42803;55.762;38.084;2022-08-07T02:44:45;99687.38;;;22.99;75.46
53011;BME280;42803;55.762;38.084;2022-08-07T02:47:21;99682.28;;;23.07;75.20
53011;BME280;42803;55.762;38.084;2022-08-07T02:50:02;99682.50;;;23.15;74.90
53011;BME280;42803;55.762;38.084;2022-08-07T02:52:37;99684.25;;;22.57;75.49
53011;BME280;42803;55.762;38.084;2022-08-07T02:55:16;99693.69;;;21.96;77.51
53011;BME280;42803;55.762;38.084;2022-08-07T02:58:11;99699.19;;;21.51;79.43
53011;BME280;42803;55.762;38.084;2022-08-07T03:00:43;99699.88;;;21.46;79.37
53011;BME280;42803;55.762;38.084;2022-08-07T03:03:15;99699.03;;;21.24;80.39
53011;BME280;42803;55.762;38.084;2022-08-07T03:05:52;99694.41;;;21.18;80.98
53011;BME280;42803;55.762;38.084;2022-08-07T03:08:22;99696.53;;;21.29;80.60
53011;BME280;42803;55.762;38.084;2022-08-07T03:10:58;99698.38;;;21.30;80.90
53011;BME280;42803;55.762;38.084;2022-08-07T03:13:40;99704.03;;;21.39;80.67
53011;BME280;42803;55.762;38.084;2022-08-07T03:16:19;99699.19;;;21.51;80.46
53011;BME280;42803;55.762;38.084;2022-08-07T03:18:55;99696.19;;;21.66;79.46
53011;BME280;42803;55.762;38.084;2022-08-07T03:21:24;99697.59;;;21.80;79.09
53011;BME280;42803;55.762;38.084;2022-08-07T03:23:56;99699.00;;;21.96;78.57
53011;BME280;42803;55.762;38.084;2022-08-07T03:26:47;99700.81;;;21.97;78.12
53011;BME280;42803;55.762;38.084;2022-08-07T03:29:34;99697.53;;;22.04;77.62
53011;BME280;42803;55.762;38.084;2022-08-07T03:32:14;99700.63;;;22.17;77.68
53011;BME280;42803;55.762;38.084;2022-08-07T03:34:46;99699.16;;;22.25;77.29
53011;BME280;42803;55.762;38.084;2022-08-07T03:37:36;99697.00;;;22.40;76.29
53011;BME280;42803;55.762;38.084;2022-08-07T03:40:21;99695.38;;;22.45;76.23
53011;BME280;42803;55.762;38.084;2022-08-07T03:43:04;99698.34;;;22.54;75.38
53011;BME280;42803;55.762;38.084;2022-08-07T03:45:45;99694.25;;;22.66;75.02
53011;BME280;42803;55.762;38.084;2022-08-07T03:48:19;99692.47;;;22.65;74.67
53011;BME280;42803;55.762;38.084;2022-08-07T03:53:32;99688.03;;;22.92;73.77
53011;BME280;42803;55.762;38.084;2022-08-07T03:56:23;99696.13;;;22.95;73.90
53011;BME280;42803;55.762;38.084;2022-08-07T03:59:04;99694.41;;;22.97;73.36
53011;BME280;42803;55.762;38.084;2022-08-07T04:01:48;99692.00;;;23.05;73.10
53011;BME280;42803;55.762;38.084;2022-08-07T04:04:21;99687.94;;;23.19;72.85
53011;BME280;42803;55.762;38.084;2022-08-07T04:06:56;99689.31;;;23.35;72.13
53011;BME280;42803;55.762;38.084;2022-08-07T04:09:28;99684.25;;;23.44;71.74
53011;BME280;42803;55.762;38.084;2022-08-07T04:12:19;99685.28;;;23.49;71.11
53011;BME280;42803;55.762;38.084;2022-08-07T04:14:57;99686.25;;;23.21;72.10
53011;BME280;42803;55.762;38.084;2022-08-07T04:17:32;99689.00;;;23.24;71.62
53011;BME280;42803;55.762;38.084;2022-08-07T04:20:22;99691.63;;;23.23;71.71
53011;BME280;42803;55.762;38.084;2022-08-07T04:22:53;99685.97;;;23.42;70.98
53011;BME280;42803;55.762;38.084;2022-08-07T04:25:33;99685.97;;;23.42;70.31
53011;BME280;42803;55.762;38.084;2022-08-07T04:28:08;99686.84;;;23.43;70.63
53011;BME280;42803;55.762;38.084;2022-08-07T04:30:41;99686.28;;;23.23;70.77
53011;BME280;42803;55.762;38.084;2022-08-07T04:33:32;99684.28;;;23.16;70.95
53011;BME280;42803;55.762;38.084;2022-08-07T04:36:03;99688.03;;;22.92;72.23
53011;BME280;42803;55.762;38.084;2022-08-07T04:38:36;99689.53;;;22.84;71.79
53011;BME280;42803;55.762;38.084;2022-08-07T04:41:08;99692.22;;;23.13;71.03
53011;BME280;42803;55.762;38.084;2022-08-07T04:43:49;99689.63;;;23.46;70.54
53011;BME280;42803;55.762;38.084;2022-08-07T04:46:50;99687.91;;;23.78;69.38
53011;BME280;42803;55.762;38.084;2022-08-07T04:49:46;99683.28;;;24.05;68.68
53011;BME280;42803;55.762;38.084;2022-08-07T04:52:38;99691.78;;;24.25;68.00
53011;BME280;42803;55.762;38.084;2022-08-07T04:55:24;99691.34;;;24.42;66.88
53011;BME280;42803;55.762;38.084;2022-08-07T04:58:21;99694.25;;;24.51;66.97
53011;BME280;42803;55.762;38.084;2022-08-07T05:01:15;99699.69;;;24.55;66.23
53011;BME280;42803;55.762;38.084;2022-08-07T05:03:50;99696.06;;;24.53;65.72
53011;BME280;42803;55.762;38.084;2022-08-07T05:06:41;99692.75;;;24.64;65.71
53011;BME280;42803;55.762;38.084;2022-08-07T05:09:26;99694.03;;;24.79;65.59
53011;BME280;42803;55.762;38.084;2022-08-07T05:12:16;99689.31;;;25.07;65.23
53011;BME280;42803;55.762;38.084;2022-08-07T05:14:59;99693.22;;;25.21;63.93
53011;BME280;42803;55.762;38.084;2022-08-07T05:17:59;99699.34;;;25.16;63.63
53011;BME280;42803;55.762;38.084;2022-08-07T05:20:39;99695.94;;;25.23;63.45
53011;BME280;42803;55.762;38.084;2022-08-07T05:23:15;99696.03;;;25.29;63.64
53011;BME280;42803;55.762;38.084;2022-08-07T05:25:50;99689.22;;;25.43;63.16
53011;BME280;42803;55.762;38.084;2022-08-07T05:28:41;99695.50;;;25.45;62.62
53011;BME280;42803;55.762;38.084;2022-08-07T05:31:21;99701.91;;;25.53;62.61
53011;BME280;42803;55.762;38.084;2022-08-07T05:34:02;99694.69;;;25.49;61.95
53011;BME280;42803;55.762;38.084;2022-08-07T05:36:41;99698.53;;;25.64;62.16
53011;BME280;42803;55.762;38.084;2022-08-07T05:39:40;99688.94;;;25.73;62.24
53011;BME280;42803;55.762;38.084;2022-08-07T05:42:30;99690.88;;;25.81;61.38
53011;BME280;42803;55.762;38.084;2022-08-07T05:45:08;99693.78;;;25.94;61.56
53011;BME280;42803;55.762;38.084;2022-08-07T05:48:02;99696.94;;;26.20;61.15
53011;BME280;42803;55.762;38.084;2022-08-07T05:50:44;99687.31;;;26.30;60.72
53011;BME280;42803;55.762;38.084;2022-08-07T05:53:18;99694.31;;;26.22;60.41
53011;BME280;42803;55.762;38.084;2022-08-07T05:56:10;99692.59;;;26.27;59.87
53011;BME280;42803;55.762;38.084;2022-08-07T05:58:46;99696.41;;;26.41;59.31
53011;BME280;42803;55.762;38.084;2022-08-07T06:01:25;99697.53;;;26.53;59.58
53011;BME280;42803;55.762;38.084;2022-08-07T06:04:06;99700.41;;;26.65;59.09
53011;BME280;42803;55.762;38.084;2022-08-07T06:06:39;99695.13;;;26.71;59.40
53011;BME280;42803;55.762;38.084;2022-08-07T06:09:16;99698.19;;;26.95;58.29
53011;BME280;42803;55.762;38.084;2022-08-07T06:11:49;99700.13;;;27.06;58.29
53011;BME280;42803;55.762;38.084;2022-08-07T06:14:21;99702.13;;;27.20;57.39
53011;BME280;42803;55.762;38.084;2022-08-07T06:17:02;99700.03;;;27.68;56.69
53011;BME280;42803;55.762;38.084;2022-08-07T06:19:38;99707.78;;;28.21;55.50
53011;BME280;42803;55.762;38.084;2022-08-07T06:22:28;99704.78;;;28.96;53.81
53011;BME280;42803;55.762;38.084;2022-08-07T06:25:19;99709.69;;;29.76;51.59
53011;BME280;42803;55.762;38.084;2022-08-07T06:28:00;99701.75;;;30.19;49.71
53011;BME280;42803;55.762;38.084;2022-08-07T06:30:31;99705.28;;;29.97;50.46
53011;BME280;42803;55.762;38.084;2022-08-07T06:33:13;99706.94;;;29.61;49.93
53011;BME280;42803;55.762;38.084;2022-08-07T06:35:47;99712.38;;;29.66;50.74
53011;BME280;42803;55.762;38.084;2022-08-07T06:38:40;99705.25;;;29.91;49.35
53011;BME280;42803;55.762;38.084;2022-08-07T06:41:34;99714.31;;;30.28;48.13
53011;BME280;42803;55.762;38.084;2022-08-07T06:44:43;99707.91;;;29.69;50.18
53011;BME280;42803;55.762;38.084;2022-08-07T06:47:18;99709.72;;;29.78;49.88
53011;BME280;42803;55.762;38.084;2022-08-07T06:49:49;99702.59;;;30.01;50.14
53011;BME280;42803;55.762;38.084;2022-08-07T06:52:34;99713.38;;;30.12;49.87
53011;BME280;42803;55.762;38.084;2022-08-07T06:55:10;99715.22;;;30.33;49.07
53011;BME280;42803;55.762;38.084;2022-08-07T06:58:04;99710.63;;;29.84;49.88
53011;BME280;42803;55.762;38.084;2022-08-07T07:00:47;99711.44;;;29.59;51.05
53011;BME280;42803;55.762;38.084;2022-08-07T07:03:20;99706.00;;;29.50;50.06
53011;BME280;42803;55.762;38.084;2022-08-07T07:06:06;99702.38;;;29.45;50.79
53011;BME280;42803;55.762;38.084;2022-08-07T07:08:37;99702.41;;;29.51;51.33
53011;BME280;42803;55.762;38.084;2022-08-07T07:11:13;99690.81;;;29.64;50.92
53011;BME280;42803;55.762;38.084;2022-08-07T07:14:03;99701.50;;;29.43;50.99
53011;BME280;42803;55.762;38.084;2022-08-07T07:16:38;99705.19;;;29.66;50.25
53011;BME280;42803;55.762;38.084;2022-08-07T07:19:20;99700.78;;;29.88;48.81
53011;BME280;42803;55.762;38.084;2022-08-07T07:22:10;99693.63;;;30.01;48.94
53011;BME280;42803;55.762;38.084;2022-08-07T07:25:00;99699.94;;;30.18;48.85
53011;BME280;42803;55.762;38.084;2022-08-07T07:27:52;99701.66;;;29.82;49.49
53011;BME280;42803;55.762;38.084;2022-08-07T07:30:36;99706.16;;;29.85;49.66
53011;BME280;42803;55.762;38.084;2022-08-07T07:33:10;99707.06;;;29.92;49.20
53011;BME280;42803;55.762;38.084;2022-08-07T07:35:43;99710.66;;;29.94;48.71
53011;BME280;42803;55.762;38.084;2022-08-07T07:38:32;99703.56;;;30.57;47.13
53011;BME280;42803;55.762;38.084;2022-08-07T07:41:05;99704.44;;;30.88;46.79
53011;BME280;42803;55.762;38.084;2022-08-07T07:43:40;99704.44;;;30.59;46.95
53011;BME280;42803;55.762;38.084;2022-08-07T07:46:31;99697.28;;;30.27;47.70
53011;BME280;42803;55.762;38.084;2022-08-07T07:49:25;99699.06;;;30.27;46.85
53011;BME280;42803;55.762;38.084;2022-08-07T07:52:16;99691.88;;;30.26;47.86
53011;BME280;42803;55.762;38.084;2022-08-07T07:54:46;99696.38;;;30.68;46.43
53011;BME280;42803;55.762;38.084;2022-08-07T07:57:21;99696.38;;;30.79;45.97
53011;BME280;42803;55.762;38.084;2022-08-07T08:00:12;99699.03;;;30.99;46.41
53011;BME280;42803;55.762;38.084;2022-08-07T08:02:58;99696.38;;;30.85;46.37
53011;BME280;42803;55.762;38.084;2022-08-07T08:05:35;99704.47;;;30.83;46.17
53011;BME280;42803;55.762;38.084;2022-08-07T08:08:23;99696.34;;;30.64;46.08
53011;BME280;42803;55.762;38.084;2022-08-07T08:11:07;99689.19;;;30.33;46.19
53011;BME280;42803;55.762;38.084;2022-08-07T08:13:46;99692.75;;;30.60;46.32
53011;BME280;42803;55.762;38.084;2022-08-07T08:16:31;99694.56;;;30.95;45.11
53011;BME280;42803;55.762;38.084;2022-08-07T08:19:03;99694.50;;;31.15;44.96
53011;BME280;42803;55.762;38.084;2022-08-07T08:21:47;99690.00;;;31.12;44.72
53011;BME280;42803;55.762;38.084;2022-08-07T08:24:38;99689.94;;;31.27;44.42
53011;BME280;42803;55.762;38.084;2022-08-07T08:27:49;99689.06;;;31.41;44.28
53011;BME280;42803;55.762;38.084;2022-08-07T08:30:32;99676.56;;;31.03;45.00
53011;BME280;42803;55.762;38.084;2022-08-07T08:33:18;99681.00;;;31.18;44.84
53011;BME280;42803;55.762;38.084;2022-08-07T08:35:50;99671.94;;;31.43;43.66
53011;BME280;42803;55.762;38.084;2022-08-07T08:38:30;99663.63;;;31.80;43.44
53011;BME280;42803;55.762;38.084;2022-08-07T08:41:13;99659.16;;;31.87;42.47
53011;BME280;42803;55.762;38.084;2022-08-07T08:43:52;99657.34;;;31.87;42.83
53011;BME280;42803;55.762;38.084;2022-08-07T08:46:35;99653.59;;;32.03;42.72
53011;BME280;42803;55.762;38.084;2022-08-07T08:49:17;99649.88;;;32.20;41.76
53011;BME280;42803;55.762;38.084;2022-08-07T08:52:05;99648.91;;;32.28;41.24
53011;BME280;42803;55.762;38.084;2022-08-07T08:57:37;99644.16;;;32.58;41.28
53011;BME280;42803;55.762;38.084;2022-08-07T09:00:09;99649.19;;;32.98;40.08
53011;BME280;42803;55.762;38.084;2022-08-07T09:02:46;99651.91;;;32.95;39.74
53011;BME280;42803;55.762;38.084;2022-08-07T09:05:32;99648.22;;;33.05;40.04
53011;BME280;42803;55.762;38.084;2022-08-07T09:08:16;99659.28;;;33.56;39.39
53011;BME280;42803;55.762;38.084;2022-08-07T09:11:04;99644.84;;;33.59;38.80
53011;BME280;42803;55.762;38.084;2022-08-07T09:14:03;99641.63;;;33.91;37.83
53011;BME280;42803;55.762;38.084;2022-08-07T09:16:44;99635.63;;;34.29;37.18
53011;BME280;42803;55.762;38.084;2022-08-07T09:19:28;99640.78;;;34.44;37.23
53011;BME280;42803;55.762;38.084;2022-08-07T09:22:30;99640.22;;;34.77;37.11
53011;BME280;42803;55.762;38.084;2022-08-07T09:25:24;99636.06;;;34.57;37.18
53011;BME280;42803;55.762;38.084;2022-08-07T09:28:03;99633.41;;;34.54;35.73
53011;BME280;42803;55.762;38.084;2022-08-07T09:30:58;99622.53;;;34.57;36.68
53011;BME280;42803;55.762;38.084;2022-08-07T09:33:47;99610.31;;;34.80;36.19
53011;BME280;42803;55.762;38.084;2022-08-07T09:36:27;99607.25;;;35.00;35.87
53011;BME280;42803;55.762;38.084;2022-08-07T09:39:19;99612.25;;;34.24;36.19
53011;BME280;42803;55.762;38.084;2022-08-07T09:42:21;99610.38;;;33.70;36.83
53011;BME280;42803;55.762;38.084;2022-08-07T09:45:09;99604.97;;;33.68;37.23
53011;BME280;42803;55.762;38.084;2022-08-07T09:48:10;99602.59;;;33.47;37.30
53011;BME280;42803;55.762;38.084;2022-08-07T09:50:58;99593.13;;;33.12;37.41
53011;BME280;42803;55.762;38.084;2022-08-07T09:53:55;99590.03;;;32.64;37.43
53011;BME280;42803;55.762;38.084;2022-08-07T09:56:46;99593.84;;;32.45;39.15
53011;BME280;42803;55.762;38.084;2022-08-07T09:59:40;99592.00;;;32.47;39.50
53011;BME280;42803;55.762;38.084;2022-08-07T10:06:34;99580.59;;;32.14;38.35
53011;BME280;42803;55.762;38.084;2022-08-07T10:09:44;99579.78;;;32.04;38.31
53011;BME280;42803;55.762;38.084;2022-08-07T10:12:44;99578.91;;;32.01;38.41
53011;BME280;42803;55.762;38.084;2022-08-07T10:15:48;99589.84;;;31.83;38.78
53011;BME280;42803;55.762;38.084;2022-08-07T10:21:28;99591.66;;;31.87;38.80
53011;BME280;42803;55.762;38.084;2022-08-07T10:27:30;99591.41;;;32.14;38.74
53011;BME280;42803;55.762;38.084;2022-08-07T10:30:16;99588.84;;;31.96;38.80
53011;BME280;42803;55.762;38.084;2022-08-07T10:33:23;99594.31;;;31.91;39.59
53011;BME280;42803;55.762;38.084;2022-08-07T10:36:26;99593.44;;;31.82;40.17
53011;BME280;42803;55.762;38.084;2022-08-07T10:39:11;99589.88;;;31.79;40.15
53011;BME280;42803;55.762;38.084;2022-08-07T10:41:56;99595.28;;;31.73;40.21
53011;BME280;42803;55.762;38.084;2022-08-07T10:44:55;99595.28;;;31.73;41.40
53011;BME280;42803;55.762;38.084;2022-08-07T10:47:36;99591.69;;;31.74;40.60
53011;BME280;42803;55.762;38.084;2022-08-07T10:50:23;99589.44;;;30.82;40.73
53011;BME280;42803;55.762;38.084;2022-08-07T10:53:02;99593.06;;;30.77;41.29
53011;BME280;42803;55.762;38.084;2022-08-07T10:55:45;99595.78;;;30.65;41.62
53011;BME280;42803;55.762;38.084;2022-08-07T10:58:30;99594.03;;;30.30;42.31
53011;BME280;42803;55.762;38.084;2022-08-07T11:01:18;99605.69;;;30.29;42.14
53011;BME280;42803;55.762;38.084;2022-08-07T11:03:57;99599.41;;;30.01;42.28
53011;BME280;42803;55.762;38.084;2022-08-07T11:06:54;99586.84;;;30.01;42.53
53011;BME280;42803;55.762;38.084;2022-08-07T11:09:33;99580.53;;;29.87;42.42
53011;BME280;42803;55.762;38.084;2022-08-07T11:12:29;99580.56;;;29.92;43.02
53011;BME280;42803;55.762;38.084;2022-08-07T11:15:05;99572.47;;;30.10;42.84
53011;BME280;42803;55.762;38.084;2022-08-07T11:17:46;99575.19;;;30.34;43.45
53011;BME280;42803;55.762;38.084;2022-08-07T11:20:23;99572.47;;;29.85;43.81
53011;BME280;42803;55.762;38.084;2022-08-07T11:22:59;99574.28;;;29.85;44.10
53011;BME280;42803;55.762;38.084;2022-08-07T11:25:35;99577.88;;;30.24;43.79
53011;BME280;42803;55.762;38.084;2022-08-07T11:28:22;99570.63;;;30.58;43.24
53011;BME280;42803;55.762;38.084;2022-08-07T11:30:57;99576.00;;;30.66;42.60
53011;BME280;42803;55.762;38.084;2022-08-07T11:33:28;99567.91;;;30.66;43.28
53011;BME280;42803;55.762;38.084;2022-08-07T11:36:33;99572.50;;;30.07;43.57
53011;BME280;42803;55.762;38.084;2022-08-07T11:39:15;99567.09;;;29.82;44.75
53011;BME280;42803;55.762;38.084;2022-08-07T11:41:56;99559.91;;;29.81;44.58
53011;BME280;42803;55.762;38.084;2022-08-07T11:44:38;99562.59;;;29.65;45.12
53011;BME280;42803;55.762;38.084;2022-08-07T11:47:33;99564.25;;;29.13;46.62
53011;BME280;42803;55.762;38.084;2022-08-07T11:50:34;99565.72;;;28.49;48.15
53011;BME280;42803;55.762;38.084;2022-08-07T11:53:33;99566.28;;;28.05;50.46
53011;BME280;42803;55.762;38.084;2022-08-07T11:56:44;99569.31;;;26.15;59.33
53011;BME280;42803;55.762;38.084;2022-08-07T11:59:37;99553.44;;;23.67;70.12
53011;BME280;42803;55.762;38.084;2022-08-07T12:06:30;99548.91;;;24.38;77.22
53011;BME280;42803;55.762;38.084;2022-08-07T12:09:10;99541.69;;;24.72;73.11
53011;BME280;42803;55.762;38.084;2022-08-07T12:11:46;99540.09;;;25.24;73.11
53011;BME280;42803;55.762;38.084;2022-08-07T12:14:54;99538.25;;;25.71;79.71
53011;BME280;42803;55.762;38.084;2022-08-07T12:17:37;99550.97;;;25.83;82.09
53011;BME280;42803;55.762;38.084;2022-08-07T12:20:29;99531.44;;;25.87;81.49
53011;BME280;42803;55.762;38.084;2022-08-07T12:23:34;99543.38;;;25.58;81.18
53011;BME280;42803;55.762;38.084;2022-08-07T12:26:30;99592.13;;;25.00;80.36
53011;BME280;42803;55.762;38.084;2022-08-07T12:29:18;99593.81;;;23.82;82.79
53011;BME280;42803;55.762;38.084;2022-08-07T12:32:13;99618.63;;;22.86;85.13
53011;BME280;42803;55.762;38.084;2022-08-07T12:34:45;99618.06;;;22.68;86.79
53011;BME280;42803;55.762;38.084;2022-08-07T12:37:23;99612.00;;;22.73;86.49
53011;BME280;42803;55.762;38.084;2022-08-07T12:40:18;99626.41;;;22.80;86.16
53011;BME280;42803;55.762;38.084;2022-08-07T12:43:09;99627.28;;;22.79;84.12
53011;BME280;42803;55.762;38.084;2022-08-07T12:46:07;99622.22;;;22.88;83.73
53011;BME280;42803;55.762;38.084;2022-08-07T12:48:59;99650.56;;;22.86;84.10
53011;BME280;42803;55.762;38.084;2022-08-07T12:51:59;99639.34;;;22.96;83.20
53011;BME280;42803;55.762;38.084;2022-08-07T12:54:49;99632.56;;;23.07;82.12
53011;BME280;42803;55.762;38.084;2022-08-07T12:57:27;99638.25;;;23.20;81.34
53011;BME280;42803;55.762;38.084;2022-08-07T13:00:19;99638.78;;;23.06;80.65
53011;BME280;42803;55.762;38.084;2022-08-07T13:03:30;99658.28;;;23.05;79.68
53011;BME280;42803;55.762;38.084;2022-08-07T13:06:43;99676.75;;;23.01;78.67
53011;BME280;42803;55.762;38.084;2022-08-07T13:09:44;99666.03;;;22.98;77.97
53011;BME280;42803;55.762;38.084;2022-08-07T13:12:44;99678.56;;;23.02;75.88
53011;BME280;42803;55.762;38.084;2022-08-07T13:15:27;99680.13;;;22.94;75.78
53011;BME280;42803;55.762;38.084;2022-08-07T13:18:20;99692.78;;;23.02;76.07
53011;BME280;42803;55.762;38.084;2022-08-07T13:21:04;99708.78;;;23.32;75.71
53011;BME280;42803;55.762;38.084;2022-08-07T13:23:46;99710.69;;;23.08;75.46
53011;BME280;42803;55.762;38.084;2022-08-07T13:26:34;99689.03;;;22.96;75.49
53011;BME280;42803;55.762;38.084;2022-08-07T13:29:15;99705.81;;;22.93;75.88
53011;BME280;42803;55.762;38.084;2022-08-07T13:31:50;99700.56;;;22.68;77.54
53011;BME280;42803;55.762;38.084;2022-08-07T13:34:37;99700.72;;;22.45;78.58
53011;BME280;42803;55.762;38.084;2022-08-07T13:37:19;99702.66;;;22.24;79.92
53011;BME280;42803;55.762;38.084;2022-08-07T13:40:04;99698.06;;;22.45;78.37
53011;BME280;42803;55.762;38.084;2022-08-07T13:42:57;99712.53;;;22.82;76.41
53011;BME280;42803;55.762;38.084;2022-08-07T13:45:28;99723.25;;;23.12;75.17
53011;BME280;42803;55.762;38.084;2022-08-07T13:48:20;99729.41;;;23.09;75.20
53011;BME280;42803;55.762;38.084;2022-08-07T13:51:02;99723.88;;;23.03;75.16
53011;BME280;42803;55.762;38.084;2022-08-07T13:53:53;99736.88;;;23.23;75.43
53011;BME280;42803;55.762;38.084;2022-08-07T13:56:31;99742.97;;;23.19;74.99
53011;BME280;42803;55.762;38.084;2022-08-07T13:59:20;99751.97;;;23.52;74.92
53011;BME280;42803;55.762;38.084;2022-08-07T14:01:57;99752.66;;;23.74;72.99
53011;BME280;42803;55.762;38.084;2022-08-07T14:04:45;99730.69;;;24.16;72.37
53011;BME280;42803;55.762;38.084;2022-08-07T14:07:23;99730.09;;;23.94;71.25
53011;BME280;42803;55.762;38.084;2022-08-07T14:09:56;99733.19;;;24.10;71.75
53011;BME280;42803;55.762;38.084;2022-08-07T14:12:51;99735.22;;;24.20;70.87
53011;BME280;42803;55.762;38.084;2022-08-07T14:15:27;99742.69;;;24.00;69.61
53011;BME280;42803;55.762;38.084;2022-08-07T14:18:03;99736.25;;;23.92;71.23
53011;BME280;42803;55.762;38.084;2022-08-07T14:21:01;99741.50;;;24.22;71.20
53011;BME280;42803;55.762;38.084;2022-08-07T14:23:39;99744.47;;;24.34;69.44
53011;BME280;42803;55.762;38.084;2022-08-07T14:26:33;99751.66;;;24.70;69.30
53011;BME280;42803;55.762;38.084;2022-08-07T14:29:08;99749.63;;;24.60;69.73
53011;BME280;42803;55.762;38.084;2022-08-07T14:32:00;99755.44;;;24.43;69.54
53011;BME280;42803;55.762;38.084;2022-08-07T14:34:32;99758.78;;;24.36;70.64